createdAt,value
2022-11-14T00:04:19.205Z,22.15
2022-11-14T00:07:06.215Z,23.00
2022-11-14T00:09:53.456Z,22.95
2022-11-14T00:12:40.373Z,21.60
2022-11-14T00:15:27.904Z,22.08
2022-11-14T00:18:15.013Z,22.25
2022-11-14T00:21:03.787Z,20.45
2022-11-14T00:23:51.075Z,21.67
2022-11-14T00:26:38.683Z,20.02
2022-11-14T00:29:25.455Z,20.13
2022-11-14T00:32:12.887Z,19.67
2022-11-14T00:34:59.932Z,21.05
2022-11-14T00:37:48.787Z,21.67
2022-11-14T00:40:35.717Z,20.00
2022-11-14T00:43:23.249Z,22.38
2022-11-14T00:46:10.210Z,21.88
2022-11-14T00:48:57.645Z,17.85
2022-11-14T00:51:44.554Z,18.75
2022-11-14T00:54:33.181Z,19.98
2022-11-14T00:57:20.301Z,19.83
2022-11-14T01:00:10.009Z,17.30
2022-11-14T01:02:58.340Z,19.73
2022-11-14T01:05:49.017Z,19.00
2022-11-14T01:08:36.476Z,19.85
2022-11-14T01:11:25.248Z,20.10
2022-11-14T01:14:12.404Z,21.23
2022-11-14T01:16:59.775Z,22.08
2022-11-14T01:19:46.653Z,22.00
2022-11-14T01:22:34.218Z,19.88
2022-11-14T01:25:21.512Z,21.65
2022-11-14T01:28:14.035Z,22.25
2022-11-14T01:31:11.458Z,22.27
2022-11-14T01:33:58.615Z,22.42
2022-11-14T01:36:45.740Z,22.23
2022-11-14T01:41:15.538Z,23.23
2022-11-14T01:44:04.441Z,22.48
2022-11-14T01:46:57.902Z,24.15
2022-11-14T01:49:51.275Z,21.52
2022-11-14T01:52:42.168Z,22.02
2022-11-14T01:55:29.498Z,28.58
2022-11-14T01:58:18.097Z,28.25
2022-11-14T02:01:06.875Z,23.45
2022-11-14T02:03:56.991Z,27.58
2022-11-14T02:06:45.611Z,25.15
2022-11-14T02:09:38.468Z,26.75
2022-11-14T02:12:25.612Z,26.42
2022-11-14T02:15:14.928Z,23.20
2022-11-14T02:18:04.024Z,24.52
2022-11-14T02:20:52.475Z,26.20
2022-11-14T02:23:39.310Z,28.55
2022-11-14T02:26:26.954Z,22.45
2022-11-14T02:29:14.121Z,21.63
2022-11-14T02:32:02.535Z,24.17
2022-11-14T02:34:51.657Z,21.27
2022-11-14T02:37:41.786Z,20.45
2022-11-14T02:40:28.631Z,19.08
2022-11-14T02:43:15.946Z,18.67
2022-11-14T02:46:05.828Z,18.88
2022-11-14T02:48:53.484Z,17.92
2022-11-14T02:51:41.292Z,18.83
2022-11-14T02:54:29.759Z,20.33
2022-11-14T02:57:16.615Z,18.20
2022-11-14T03:00:06.721Z,16.77
2022-11-14T03:02:56.027Z,17.73
2022-11-14T03:05:43.590Z,14.80
2022-11-14T03:08:31.350Z,13.57
2022-11-14T03:11:20.371Z,14.82
2022-11-14T03:14:07.746Z,13.90
2022-11-14T03:16:56.592Z,12.50
2022-11-14T03:19:43.744Z,12.35
2022-11-14T03:22:31.198Z,13.88
2022-11-14T03:25:18.470Z,12.88
2022-11-14T03:28:07.514Z,13.30
2022-11-14T03:30:54.477Z,12.55
2022-11-14T03:33:41.950Z,12.77
2022-11-14T03:36:29.276Z,11.38
2022-11-14T03:39:16.891Z,11.10
2022-11-14T03:42:05.472Z,12.57
2022-11-14T03:44:54.071Z,10.57
2022-11-14T03:52:31.949Z,12.38
2022-11-14T03:55:18.656Z,10.15
2022-11-14T03:58:06.317Z,11.23
2022-11-14T04:00:55.972Z,12.07
2022-11-14T04:03:43.436Z,11.90
2022-11-14T04:06:30.386Z,9.73
2022-11-14T04:09:17.883Z,8.65
2022-11-14T04:12:05.348Z,8.73
2022-11-14T04:14:52.533Z,8.02
2022-11-14T04:17:41.177Z,10.23
2022-11-14T04:20:28.730Z,9.50
2022-11-14T04:23:15.562Z,9.23
2022-11-14T04:26:03.124Z,9.68
2022-11-14T04:28:50.196Z,7.78
2022-11-14T04:31:37.666Z,8.18
2022-11-14T04:34:25.771Z,8.63
2022-11-14T04:37:13.253Z,10.18
2022-11-14T04:40:02.608Z,8.38
2022-11-14T04:42:50.370Z,7.82
2022-11-14T04:45:37.738Z,8.45
2022-11-14T04:48:25.208Z,8.00
2022-11-14T04:51:13.919Z,11.15
2022-11-14T04:54:01.212Z,8.50
2022-11-14T04:56:48.079Z,8.15
2022-11-14T04:59:35.733Z,10.50
2022-11-14T05:02:22.585Z,10.85
2022-11-14T05:05:10.638Z,10.23
2022-11-14T05:07:59.241Z,10.35
2022-11-14T05:10:47.467Z,10.20
2022-11-14T05:13:34.766Z,9.77
2022-11-14T05:16:22.225Z,8.85
2022-11-14T05:19:09.151Z,7.20
2022-11-14T05:21:56.508Z,10.02
2022-11-14T05:24:44.991Z,9.15
2022-11-14T05:27:32.870Z,8.63
2022-11-14T05:30:20.535Z,9.13
2022-11-14T05:33:07.821Z,7.22
2022-11-14T05:35:54.698Z,7.82
2022-11-14T05:38:43.083Z,8.13
2022-11-14T05:41:31.633Z,7.78
2022-11-14T05:44:19.000Z,9.23
2022-11-14T05:47:06.603Z,8.27
2022-11-14T05:49:54.301Z,10.57
2022-11-14T05:52:41.321Z,8.93
2022-11-14T05:55:28.724Z,9.45
2022-11-14T05:58:17.033Z,9.75
2022-11-14T06:01:06.681Z,9.80
2022-11-14T06:03:53.619Z,8.55
2022-11-14T06:06:41.159Z,11.07
2022-11-14T06:14:20.486Z,11.07
2022-11-14T06:17:07.431Z,11.00
2022-11-14T06:19:54.924Z,10.43
2022-11-14T06:22:41.981Z,11.15
2022-11-14T06:25:29.291Z,11.13
2022-11-14T06:28:16.683Z,10.73
2022-11-14T06:31:06.595Z,9.85
2022-11-14T06:33:54.555Z,10.93
2022-11-14T06:36:42.100Z,9.65
2022-11-14T06:39:28.959Z,10.48
2022-11-14T06:42:17.615Z,11.73
2022-11-14T06:45:05.333Z,9.50
2022-11-14T06:47:54.146Z,9.50
2022-11-14T06:50:41.163Z,8.70
2022-11-14T06:53:32.054Z,8.27
2022-11-14T06:56:21.250Z,9.07
2022-11-14T06:59:08.482Z,8.88
2022-11-14T07:01:55.504Z,8.93
2022-11-14T07:04:44.157Z,10.50
2022-11-14T07:07:32.015Z,11.15
2022-11-14T07:10:19.438Z,8.88
2022-11-14T07:13:06.503Z,7.88
2022-11-14T07:15:54.766Z,7.57
2022-11-14T07:18:42.346Z,8.57
2022-11-14T07:21:32.574Z,7.13
2022-11-14T07:24:19.644Z,7.57
2022-11-14T07:27:09.360Z,8.93
2022-11-14T07:29:56.781Z,10.05
2022-11-14T07:32:44.298Z,7.57
2022-11-14T07:35:31.576Z,7.93
2022-11-14T07:38:20.340Z,7.90
2022-11-14T07:41:11.213Z,10.07
2022-11-14T07:43:58.636Z,7.90
2022-11-14T07:51:38.614Z,7.72
2022-11-14T07:54:27.950Z,8.82
2022-11-14T07:57:15.158Z,9.40
2022-11-14T08:00:02.236Z,7.72
2022-11-14T08:02:49.779Z,8.32
2022-11-14T08:05:37.439Z,6.57
2022-11-14T08:08:24.943Z,6.13
2022-11-14T08:11:15.104Z,8.18
2022-11-14T08:14:10.601Z,6.90
2022-11-14T08:16:58.050Z,6.95
2022-11-14T08:19:45.169Z,7.13
2022-11-14T08:22:32.192Z,7.05
2022-11-14T08:30:13.743Z,6.65
2022-11-14T08:33:04.420Z,7.40
2022-11-14T08:35:52.056Z,5.95
2022-11-14T08:38:39.240Z,7.03
2022-11-14T08:41:26.414Z,6.65
2022-11-14T08:44:13.522Z,5.53
2022-11-14T08:47:03.815Z,7.05
2022-11-14T08:49:51.018Z,6.30
2022-11-14T08:52:38.704Z,7.25
2022-11-14T08:55:25.717Z,7.30
2022-11-14T08:58:13.232Z,7.00
2022-11-14T09:01:06.060Z,8.52
2022-11-14T09:03:59.637Z,8.77
2022-11-14T09:11:42.673Z,7.78
2022-11-14T09:14:30.033Z,6.75
2022-11-14T09:17:17.712Z,5.70
2022-11-14T09:20:07.200Z,7.05
2022-11-14T09:22:54.354Z,6.95
2022-11-14T09:25:41.348Z,8.25
2022-11-14T09:28:28.747Z,7.28
2022-11-14T09:31:15.866Z,6.90
2022-11-14T09:34:03.409Z,6.15
2022-11-14T09:36:51.923Z,5.82
2022-11-14T09:39:40.719Z,8.73
2022-11-14T09:42:55.696Z,6.28
2022-11-14T09:45:50.575Z,6.88
2022-11-14T09:48:37.992Z,7.97
2022-11-14T09:51:32.293Z,9.20
2022-11-14T09:54:25.826Z,8.68
2022-11-14T09:57:18.468Z,10.85
2022-11-14T10:01:46.149Z,12.80
2022-11-14T10:04:55.871Z,14.05
2022-11-14T10:08:01.565Z,11.82
2022-11-14T10:10:56.162Z,15.52
2022-11-14T10:14:26.495Z,9.80
2022-11-14T10:17:36.437Z,11.35
2022-11-14T10:20:38.116Z,10.27
2022-11-14T10:23:44.256Z,9.73
2022-11-14T10:28:10.917Z,10.30
2022-11-14T10:31:15.537Z,10.35
2022-11-14T10:34:10.515Z,11.13
2022-11-14T10:37:11.089Z,14.52
2022-11-14T10:40:14.729Z,15.27
2022-11-14T10:43:19.163Z,14.38
2022-11-14T10:46:17.284Z,14.35
2022-11-14T10:49:16.818Z,14.63
2022-11-14T10:52:08.642Z,15.88
2022-11-14T10:59:49.623Z,12.65
2022-11-14T11:02:53.562Z,9.60
2022-11-14T11:05:50.558Z,8.68
2022-11-14T11:09:01.262Z,6.25
2022-11-14T11:11:57.247Z,6.85
2022-11-14T11:14:46.062Z,6.03
2022-11-14T11:17:38.484Z,6.25
2022-11-14T11:20:33.672Z,6.63
2022-11-14T11:23:27.153Z,5.22
2022-11-14T11:27:53.215Z,5.43
2022-11-14T11:30:41.772Z,5.20
2022-11-14T11:33:31.771Z,5.20
2022-11-14T11:36:26.034Z,4.90
2022-11-14T11:39:26.396Z,6.47
2022-11-14T11:42:21.773Z,5.55
2022-11-14T11:45:18.053Z,6.60
2022-11-14T11:48:17.622Z,8.13
2022-11-14T11:51:11.605Z,8.95
2022-11-14T11:54:10.253Z,7.22
2022-11-14T12:01:52.793Z,8.57
2022-11-14T12:04:40.318Z,13.32
2022-11-14T12:07:46.085Z,13.70
2022-11-14T12:10:40.325Z,15.45
2022-11-14T12:14:09.466Z,17.38
2022-11-14T12:18:36.150Z,23.08
2022-11-14T12:21:46.704Z,27.77
2022-11-14T12:25:01.627Z,32.88
2022-11-14T12:28:09.858Z,30.73
2022-11-14T12:31:02.361Z,29.35
2022-11-14T12:33:59.687Z,26.55
2022-11-14T12:36:47.755Z,20.75
2022-11-14T12:39:35.125Z,20.45
2022-11-14T12:42:23.595Z,18.13
2022-11-14T12:46:01.783Z,17.40
2022-11-14T12:48:49.138Z,17.08
2022-11-14T12:57:02.671Z,17.88
2022-11-14T13:00:05.302Z,22.38
2022-11-14T13:03:33.682Z,19.70
2022-11-14T13:06:26.750Z,23.45
2022-11-14T13:09:54.759Z,24.75
2022-11-14T13:13:01.902Z,26.50
2022-11-14T13:16:10.903Z,29.92
2022-11-14T13:19:33.859Z,31.98
2022-11-14T13:22:40.950Z,31.35
2022-11-14T13:25:29.188Z,31.48
2022-11-14T13:28:49.973Z,25.13
2022-11-14T13:31:52.296Z,27.65
2022-11-14T13:34:52.641Z,23.83
2022-11-14T13:38:03.693Z,25.60
2022-11-14T13:41:06.760Z,28.25
2022-11-14T13:44:16.925Z,23.95
2022-11-14T13:47:50.930Z,24.88
2022-11-14T13:50:43.100Z,20.05
2022-11-14T13:53:33.440Z,18.27
2022-11-14T13:56:36.453Z,20.40
2022-11-14T14:00:07.310Z,18.83
2022-11-14T14:03:24.837Z,20.08
2022-11-14T14:06:36.945Z,20.38
2022-11-14T14:09:38.635Z,21.30
2022-11-14T14:12:55.904Z,19.95
2022-11-14T14:15:55.095Z,20.23
2022-11-14T14:19:00.961Z,20.08
2022-11-14T14:22:01.543Z,20.55
2022-11-14T14:24:59.677Z,19.42
2022-11-14T14:28:07.241Z,19.55
2022-11-14T14:31:12.567Z,20.20
2022-11-14T14:34:00.036Z,18.98
2022-11-14T14:36:53.680Z,17.70
2022-11-14T14:39:41.300Z,20.75
2022-11-14T14:42:37.154Z,19.98
2022-11-14T14:45:29.370Z,21.05
2022-11-14T14:48:22.437Z,19.77
2022-11-14T14:51:15.635Z,24.00
2022-11-14T14:54:07.731Z,21.83
2022-11-14T14:57:00.128Z,21.38
2022-11-14T14:59:47.362Z,18.48
2022-11-14T15:02:35.436Z,19.98
2022-11-14T15:05:24.944Z,16.27
2022-11-14T15:08:16.716Z,19.38
2022-11-14T15:11:07.068Z,18.38
2022-11-14T15:13:58.454Z,20.58
2022-11-14T15:16:50.158Z,19.13
2022-11-14T15:19:43.119Z,20.42
2022-11-14T15:22:30.195Z,19.08
2022-11-14T15:25:22.755Z,17.27
2022-11-14T15:28:22.127Z,16.70
2022-11-14T15:31:20.757Z,18.98
2022-11-14T15:34:25.393Z,18.63
2022-11-14T15:37:24.468Z,19.90
2022-11-14T15:40:21.249Z,21.23
2022-11-14T15:43:50.480Z,19.98
2022-11-14T15:46:47.227Z,22.15
2022-11-14T15:49:35.748Z,20.52
2022-11-14T15:57:18.174Z,21.65
2022-11-14T16:00:08.768Z,19.77
2022-11-14T16:02:58.571Z,21.80
2022-11-14T16:05:47.015Z,22.23
2022-11-14T16:08:34.472Z,22.88
2022-11-14T16:11:21.480Z,23.10
2022-11-14T16:14:08.874Z,22.85
2022-11-14T16:16:56.991Z,22.85
2022-11-14T16:19:45.261Z,22.80
2022-11-14T16:22:32.740Z,22.13
2022-11-14T16:25:24.176Z,23.13
2022-11-14T16:28:11.259Z,22.45
2022-11-14T16:30:58.995Z,21.30
2022-11-14T16:38:38.243Z,17.95
2022-11-14T16:41:25.362Z,19.42
2022-11-14T16:44:17.660Z,23.33
2022-11-14T16:47:04.858Z,19.70
2022-11-14T16:49:53.052Z,19.50
2022-11-14T16:52:40.579Z,30.13
2022-11-14T16:55:29.366Z,21.23
2022-11-14T16:58:16.246Z,21.40
2022-11-14T17:01:04.991Z,21.20
2022-11-14T17:03:53.462Z,20.38
2022-11-14T17:06:40.971Z,21.55
2022-11-14T17:09:28.496Z,22.60
2022-11-14T17:12:17.507Z,20.65
2022-11-14T17:15:05.454Z,20.75
2022-11-14T17:17:52.729Z,20.20
2022-11-14T17:20:40.009Z,21.02
2022-11-14T17:23:27.455Z,21.42
2022-11-14T17:31:12.068Z,20.83
2022-11-14T17:34:01.155Z,19.30
2022-11-14T17:36:48.920Z,19.77
2022-11-14T17:39:36.020Z,19.75
2022-11-14T17:42:23.437Z,20.25
2022-11-14T17:45:11.135Z,20.13
2022-11-14T17:47:59.733Z,18.83
2022-11-14T17:50:46.616Z,19.33
2022-11-14T17:53:34.736Z,19.90
2022-11-14T17:56:24.643Z,19.83
2022-11-14T17:59:12.281Z,23.55
2022-11-14T18:06:52.801Z,19.00
2022-11-14T18:09:41.425Z,20.52
2022-11-14T18:12:29.281Z,19.77
2022-11-14T18:15:17.040Z,18.70
2022-11-14T18:18:04.919Z,18.13
2022-11-14T18:20:52.199Z,19.38
2022-11-14T18:23:41.240Z,17.77
2022-11-14T18:31:20.317Z,17.48
2022-11-14T18:34:07.713Z,17.60
2022-11-14T18:36:55.246Z,18.65
2022-11-14T18:39:43.471Z,17.98
2022-11-14T18:42:32.238Z,19.33
2022-11-14T18:45:19.662Z,18.98
2022-11-14T18:48:08.056Z,17.55
2022-11-14T18:51:01.034Z,18.25
2022-11-14T18:53:48.779Z,18.75
2022-11-14T18:56:37.649Z,19.42
2022-11-14T19:04:19.762Z,19.88
2022-11-14T19:07:07.203Z,16.98
2022-11-14T19:09:54.617Z,19.05
2022-11-14T19:12:42.901Z,16.92
2022-11-14T19:15:30.453Z,17.02
2022-11-14T19:18:17.641Z,17.75
2022-11-14T19:21:06.185Z,19.42
2022-11-14T19:23:53.872Z,18.92
2022-11-14T19:31:33.211Z,18.80
2022-11-14T19:34:20.433Z,19.60
2022-11-14T19:37:07.913Z,19.55
2022-11-14T19:39:55.602Z,21.77
2022-11-14T19:42:43.363Z,18.05
2022-11-14T19:45:30.273Z,19.55
2022-11-14T19:48:19.280Z,20.20
2022-11-14T19:51:08.720Z,16.20
2022-11-14T19:53:58.236Z,18.58
2022-11-14T19:56:45.670Z,19.10
2022-11-14T19:59:33.242Z,18.33
2022-11-14T20:02:20.173Z,19.13
2022-11-14T20:05:10.821Z,17.75
2022-11-14T20:07:58.021Z,20.40
2022-11-14T20:10:57.075Z,21.42
2022-11-14T20:13:44.675Z,19.95
2022-11-14T20:16:34.917Z,19.00
2022-11-14T20:19:22.172Z,21.27
2022-11-14T20:22:11.258Z,19.48
2022-11-14T20:24:58.501Z,19.58
2022-11-14T20:27:46.049Z,21.25
2022-11-14T20:30:33.030Z,19.38
2022-11-14T20:33:20.731Z,17.75
2022-11-14T20:36:12.259Z,18.55
2022-11-14T20:39:01.136Z,19.27
2022-11-14T20:41:48.443Z,20.23
2022-11-14T20:44:35.970Z,18.35
2022-11-14T20:47:23.296Z,19.38
2022-11-14T20:50:11.328Z,17.88
2022-11-14T20:52:58.242Z,19.52
2022-11-14T20:55:53.635Z,18.15
2022-11-14T20:58:42.191Z,19.30
2022-11-14T21:01:29.779Z,17.45
2022-11-14T21:04:17.370Z,18.90
2022-11-14T21:07:04.590Z,22.77
2022-11-14T21:10:12.927Z,20.05
2022-11-14T21:13:19.380Z,19.42
2022-11-14T21:16:10.138Z,19.80
2022-11-14T21:18:58.830Z,19.25
2022-11-14T21:21:46.224Z,21.25
2022-11-14T21:24:38.395Z,23.00
2022-11-14T21:27:26.749Z,23.20
2022-11-14T21:30:16.150Z,22.02
2022-11-14T21:33:03.432Z,19.55
2022-11-14T21:35:51.063Z,23.70
2022-11-14T21:38:37.996Z,21.15
2022-11-14T21:41:28.037Z,24.67
2022-11-14T21:44:18.996Z,21.20
2022-11-14T21:47:07.861Z,24.42
2022-11-14T21:50:00.895Z,20.83
2022-11-14T21:52:48.678Z,22.60
2022-11-14T21:55:35.634Z,25.73
2022-11-14T21:58:23.097Z,25.65
2022-11-14T22:01:12.968Z,23.33
2022-11-14T22:04:12.490Z,24.80
2022-11-14T22:07:00.209Z,23.58
2022-11-14T22:09:47.484Z,24.42
2022-11-14T22:12:35.343Z,25.05
2022-11-14T22:15:22.491Z,22.80
2022-11-14T22:18:09.384Z,22.95
2022-11-14T22:20:59.661Z,24.75
2022-11-14T22:23:46.678Z,20.98
2022-11-14T22:26:36.471Z,23.58
2022-11-14T22:29:23.521Z,20.10
2022-11-14T22:32:11.007Z,21.27
2022-11-14T22:34:57.733Z,21.98
2022-11-14T22:37:46.410Z,20.98
2022-11-14T22:40:33.235Z,21.42
2022-11-14T22:43:22.416Z,18.73
2022-11-14T22:46:11.197Z,20.70
2022-11-14T22:48:59.305Z,22.52
2022-11-14T22:51:46.152Z,21.30
2022-11-14T22:54:35.020Z,21.45
2022-11-14T22:57:22.171Z,21.48
2022-11-14T23:00:11.935Z,21.98
2022-11-14T23:02:59.196Z,19.63
2022-11-14T23:05:47.434Z,19.55
2022-11-14T23:08:36.164Z,23.08
2022-11-14T23:11:28.399Z,21.95
2022-11-14T23:14:15.649Z,22.08
2022-11-14T23:17:02.866Z,20.52
2022-11-14T23:19:49.681Z,24.05
2022-11-14T23:22:37.251Z,22.58
2022-11-14T23:25:25.253Z,24.05
2022-11-14T23:28:13.894Z,24.40
2022-11-14T23:31:02.567Z,25.48
2022-11-14T23:33:52.416Z,26.17
2022-11-14T23:36:39.650Z,28.52
2022-11-14T23:39:27.005Z,29.42
2022-11-14T23:42:14.192Z,30.63
2022-11-14T23:49:53.706Z,30.60
2022-11-14T23:52:40.868Z,29.58
2022-11-14T23:55:28.186Z,35.75
2022-11-14T23:58:15.254Z,31.92
